createdAt,value
2023-03-21T00:00:38.808Z,4.20
2023-03-21T00:01:41.662Z,4.97
2023-03-21T00:02:44.899Z,4.45
2023-03-21T00:03:59.569Z,4.68
2023-03-21T00:05:13.277Z,4.50
2023-03-21T00:06:18.017Z,5.20
2023-03-21T00:07:21.299Z,5.35
2023-03-21T00:08:26.189Z,4.97
2023-03-21T00:09:29.134Z,4.55
2023-03-21T00:10:40.111Z,4.80
2023-03-21T00:11:46.801Z,4.53
2023-03-21T00:12:58.659Z,4.88
2023-03-21T00:14:02.807Z,3.97
2023-03-21T00:15:08.189Z,4.65
2023-03-21T00:16:36.889Z,4.03
2023-03-21T00:17:40.479Z,3.83
2023-03-21T00:18:46.742Z,4.45
2023-03-21T00:19:51.565Z,3.78
2023-03-21T00:21:35.584Z,4.05
2023-03-21T00:22:25.840Z,3.60
2023-03-21T00:23:30.007Z,3.88
2023-03-21T00:24:33.617Z,3.45
2023-03-21T00:25:36.511Z,4.10
2023-03-21T00:26:39.717Z,4.70
2023-03-21T00:28:01.020Z,3.35
2023-03-21T00:29:06.056Z,4.18
2023-03-21T00:30:09.576Z,3.25
2023-03-21T00:31:12.360Z,2.88
2023-03-21T00:32:15.740Z,3.70
2023-03-21T00:33:22.894Z,2.70
2023-03-21T00:34:36.978Z,3.97
2023-03-21T00:35:58.705Z,4.15
2023-03-21T00:37:07.666Z,3.83
2023-03-21T00:38:10.944Z,3.20
2023-03-21T00:39:14.502Z,3.35
2023-03-21T00:40:26.668Z,2.75
2023-03-21T00:41:42.048Z,3.08
2023-03-21T00:42:46.121Z,3.58
2023-03-21T00:43:48.922Z,3.72
2023-03-21T00:44:51.716Z,3.13
2023-03-21T00:45:54.603Z,3.83
2023-03-21T00:47:06.480Z,3.63
2023-03-21T00:48:11.313Z,2.67
2023-03-21T00:49:14.354Z,2.63
2023-03-21T00:50:18.350Z,2.85
2023-03-21T00:51:26.810Z,3.05
2023-03-21T00:52:40.146Z,3.28
2023-03-21T00:53:43.996Z,2.55
2023-03-21T00:54:46.882Z,3.53
2023-03-21T00:55:50.737Z,2.67
2023-03-21T00:56:53.750Z,2.88
2023-03-21T00:58:02.135Z,3.33
2023-03-21T00:59:05.232Z,2.58
2023-03-21T01:00:12.722Z,2.50
2023-03-21T01:02:23.241Z,2.40
2023-03-21T01:03:26.905Z,2.80
2023-03-21T01:04:29.843Z,2.85
2023-03-21T01:05:54.389Z,2.30
2023-03-21T01:06:57.189Z,3.95
2023-03-21T01:08:00.385Z,4.57
2023-03-21T01:09:03.319Z,2.90
2023-03-21T01:10:06.699Z,2.30
2023-03-21T01:11:13.299Z,2.00
2023-03-21T01:12:16.114Z,1.83
2023-03-21T01:13:20.817Z,2.42
2023-03-21T01:14:24.366Z,2.53
2023-03-21T01:15:29.457Z,3.05
2023-03-21T01:16:32.721Z,2.35
2023-03-21T01:17:35.520Z,2.58
2023-03-21T01:18:40.253Z,2.60
2023-03-21T01:19:51.636Z,2.00
2023-03-21T01:20:57.781Z,3.17
2023-03-21T01:22:00.695Z,2.03
2023-03-21T01:23:03.649Z,2.30
2023-03-21T01:24:07.409Z,1.73
2023-03-21T01:25:21.902Z,2.47
2023-03-21T01:26:26.101Z,1.90
2023-03-21T01:27:28.879Z,2.10
2023-03-21T01:28:32.132Z,1.75
2023-03-21T01:29:34.930Z,1.83
2023-03-21T01:30:42.011Z,2.13
2023-03-21T01:32:48.326Z,2.10
2023-03-21T01:33:51.677Z,2.22
2023-03-21T01:34:54.485Z,2.38
2023-03-21T01:36:10.343Z,1.88
2023-03-21T01:37:17.951Z,1.58
2023-03-21T01:38:24.316Z,2.00
2023-03-21T01:39:27.126Z,1.95
2023-03-21T01:40:31.115Z,1.60
2023-03-21T01:41:47.633Z,1.42
2023-03-21T01:42:59.313Z,1.38
2023-03-21T01:44:02.318Z,1.83
2023-03-21T01:45:46.850Z,2.33
2023-03-21T01:48:22.517Z,1.10
2023-03-21T01:49:38.910Z,1.70
2023-03-21T01:51:03.838Z,1.73
2023-03-21T01:52:29.682Z,2.05
2023-03-21T01:53:41.013Z,1.52
2023-03-21T01:54:48.004Z,1.30
2023-03-21T01:55:51.331Z,1.40
2023-03-21T01:57:13.733Z,1.98
2023-03-21T01:59:46.307Z,0.98
2023-03-21T02:01:05.174Z,1.52
2023-03-21T02:02:27.448Z,1.52
2023-03-21T02:03:53.740Z,1.60
2023-03-21T02:05:56.165Z,1.83
2023-03-21T02:07:06.413Z,1.00
2023-03-21T02:08:17.172Z,2.00
2023-03-21T02:09:24.117Z,2.05
2023-03-21T02:11:33.475Z,1.45
2023-03-21T02:12:36.506Z,1.40
2023-03-21T02:13:39.609Z,1.30
2023-03-21T02:14:47.420Z,1.27
2023-03-21T02:16:33.359Z,1.63
2023-03-21T02:17:50.363Z,1.13
2023-03-21T02:19:01.856Z,1.02
2023-03-21T02:21:35.468Z,1.58
2023-03-21T02:23:08.456Z,1.38
2023-03-21T02:24:37.323Z,2.72
2023-03-21T02:26:13.510Z,1.83
2023-03-21T02:27:24.768Z,1.00
2023-03-21T02:28:49.664Z,1.85
2023-03-21T02:30:01.666Z,1.35
2023-03-21T02:31:39.697Z,1.35
2023-03-21T02:33:05.909Z,2.22
2023-03-21T02:34:27.626Z,1.10
2023-03-21T02:35:54.363Z,1.10
2023-03-21T02:37:36.679Z,0.98
2023-03-21T02:38:51.903Z,1.40
2023-03-21T02:40:11.999Z,1.08
2023-03-21T02:41:32.242Z,1.40
2023-03-21T02:42:59.405Z,1.52
2023-03-21T02:44:35.931Z,1.63
2023-03-21T02:45:45.098Z,1.92
2023-03-21T02:47:06.257Z,1.27
2023-03-21T02:48:27.651Z,1.35
2023-03-21T02:49:53.801Z,1.83
2023-03-21T02:51:00.958Z,1.33
2023-03-21T02:52:15.516Z,1.27
2023-03-21T02:53:24.633Z,0.90
2023-03-21T02:54:45.276Z,1.80
2023-03-21T02:55:53.132Z,0.90
2023-03-21T02:56:59.777Z,1.98
2023-03-21T02:58:12.918Z,1.05
2023-03-21T02:59:26.044Z,1.40
2023-03-21T03:00:33.058Z,1.60
2023-03-21T03:01:38.019Z,1.17
2023-03-21T03:02:41.947Z,0.93
2023-03-21T03:03:45.325Z,1.23
2023-03-21T03:04:48.128Z,1.25
2023-03-21T03:05:54.430Z,1.70
2023-03-21T03:07:31.896Z,1.50
2023-03-21T03:09:02.615Z,1.00
2023-03-21T03:10:33.630Z,1.10
2023-03-21T03:11:43.190Z,1.40
2023-03-21T03:13:06.953Z,2.83
2023-03-21T03:14:42.087Z,1.35
2023-03-21T03:16:12.202Z,2.38
2023-03-21T03:17:37.600Z,1.00
2023-03-21T03:18:54.724Z,1.48
2023-03-21T03:20:17.456Z,1.58
2023-03-21T03:21:32.839Z,0.88
2023-03-21T03:23:12.968Z,1.20
2023-03-21T03:24:48.035Z,1.15
2023-03-21T03:26:04.201Z,1.73
2023-03-21T03:27:12.375Z,1.65
2023-03-21T03:28:20.199Z,1.10
2023-03-21T03:29:25.086Z,0.80
2023-03-21T03:30:39.210Z,1.73
2023-03-21T03:31:51.965Z,2.33
2023-03-21T03:32:59.513Z,1.00
2023-03-21T03:34:09.771Z,1.27
2023-03-21T03:35:18.654Z,0.70
2023-03-21T03:36:32.409Z,1.40
2023-03-21T03:37:41.393Z,1.52
2023-03-21T03:38:46.854Z,1.88
2023-03-21T03:40:09.096Z,0.70
2023-03-21T03:41:25.616Z,1.08
2023-03-21T03:42:42.314Z,0.82
2023-03-21T03:43:58.096Z,1.10
2023-03-21T03:45:07.136Z,1.70
2023-03-21T03:46:19.447Z,1.33
2023-03-21T03:47:34.905Z,0.90
2023-03-21T03:48:47.205Z,1.50
2023-03-21T03:50:17.285Z,1.55
2023-03-21T03:51:22.326Z,1.48
2023-03-21T03:54:37.433Z,0.90
2023-03-21T03:55:42.161Z,1.45
2023-03-21T03:56:49.408Z,1.33
2023-03-21T03:57:53.888Z,0.80
2023-03-21T03:58:57.494Z,0.93
2023-03-21T04:00:17.439Z,0.73
2023-03-21T04:01:20.219Z,1.10
2023-03-21T04:02:23.179Z,1.35
2023-03-21T04:03:26.419Z,1.42
2023-03-21T04:04:29.777Z,1.25
2023-03-21T04:05:33.833Z,1.13
2023-03-21T04:06:37.413Z,1.35
2023-03-21T04:07:41.602Z,1.00
2023-03-21T04:08:44.911Z,0.80
2023-03-21T04:09:48.146Z,1.15
2023-03-21T04:10:54.820Z,1.35
2023-03-21T04:11:58.854Z,1.98
2023-03-21T04:13:01.749Z,1.85
2023-03-21T04:14:18.952Z,1.30
2023-03-21T04:15:22.357Z,0.93
2023-03-21T04:16:35.159Z,1.48
2023-03-21T04:17:39.923Z,1.13
2023-03-21T04:18:42.846Z,0.90
2023-03-21T04:19:46.576Z,1.27
2023-03-21T04:20:51.442Z,1.75
2023-03-21T04:21:54.759Z,0.93
2023-03-21T04:22:58.361Z,1.30
2023-03-21T04:24:01.576Z,1.10
2023-03-21T04:25:05.654Z,1.42
2023-03-21T04:26:10.072Z,2.55
2023-03-21T04:27:21.510Z,1.00
2023-03-21T04:28:53.405Z,0.98
2023-03-21T04:29:59.446Z,1.85
2023-03-21T04:31:25.112Z,0.80
2023-03-21T04:32:34.112Z,1.60
2023-03-21T04:33:45.500Z,0.82
2023-03-21T04:34:50.291Z,0.93
2023-03-21T04:35:56.780Z,2.45
2023-03-21T04:37:01.356Z,1.73
2023-03-21T04:38:05.280Z,1.73
2023-03-21T04:39:12.778Z,1.90
2023-03-21T04:40:20.216Z,1.77
2023-03-21T04:41:23.789Z,1.52
2023-03-21T04:42:26.701Z,2.28
2023-03-21T04:43:31.150Z,1.58
2023-03-21T04:44:33.934Z,1.13
2023-03-21T04:45:36.738Z,1.48
2023-03-21T04:46:40.570Z,1.10
2023-03-21T04:47:44.710Z,2.03
2023-03-21T04:48:47.637Z,3.22
2023-03-21T04:49:50.725Z,4.18
2023-03-21T04:50:53.478Z,2.08
2023-03-21T04:51:56.473Z,2.55
2023-03-21T04:52:59.280Z,2.03
2023-03-21T04:54:03.776Z,1.98
2023-03-21T04:55:10.445Z,1.73
2023-03-21T04:56:16.168Z,1.38
2023-03-21T04:57:20.187Z,1.55
2023-03-21T04:58:22.949Z,2.05
2023-03-21T04:59:26.138Z,1.42
2023-03-21T05:00:29.072Z,2.20
2023-03-21T05:01:32.133Z,1.75
2023-03-21T05:02:34.946Z,2.25
2023-03-21T05:03:40.535Z,1.85
2023-03-21T05:04:43.560Z,1.88
2023-03-21T05:05:46.921Z,1.60
2023-03-21T05:06:50.007Z,1.52
2023-03-21T05:07:52.815Z,1.63
2023-03-21T05:09:00.317Z,2.10
2023-03-21T05:10:03.510Z,2.67
2023-03-21T05:11:06.704Z,1.77
2023-03-21T05:12:09.547Z,1.85
2023-03-21T05:13:12.271Z,1.48
2023-03-21T05:14:19.211Z,3.05
2023-03-21T05:15:24.734Z,2.53
2023-03-21T05:16:31.035Z,1.00
2023-03-21T05:17:35.238Z,1.45
2023-03-21T05:18:38.978Z,3.20
2023-03-21T05:19:53.031Z,2.00
2023-03-21T05:20:57.702Z,1.08
2023-03-21T05:22:05.805Z,1.50
2023-03-21T05:23:11.178Z,1.67
2023-03-21T05:24:18.262Z,1.80
2023-03-21T05:25:35.659Z,2.15
2023-03-21T05:26:56.621Z,1.17
2023-03-21T05:28:05.956Z,1.75
2023-03-21T05:29:10.270Z,1.33
2023-03-21T05:30:18.043Z,1.92
2023-03-21T05:31:23.869Z,3.42
2023-03-21T05:32:31.956Z,1.40
2023-03-21T05:33:36.213Z,2.28
2023-03-21T05:34:38.976Z,1.35
2023-03-21T05:35:42.071Z,1.50
2023-03-21T05:36:47.117Z,2.38
2023-03-21T05:37:49.889Z,1.65
2023-03-21T05:38:52.810Z,0.95
2023-03-21T05:39:55.978Z,1.75
2023-03-21T05:41:03.579Z,1.20
2023-03-21T05:42:07.677Z,2.38
2023-03-21T05:43:10.923Z,2.00
2023-03-21T05:44:14.239Z,2.72
2023-03-21T05:45:17.560Z,1.42
2023-03-21T05:46:20.336Z,2.33
2023-03-21T05:47:23.195Z,1.63
2023-03-21T05:48:27.997Z,2.35
2023-03-21T05:49:44.081Z,3.28
2023-03-21T05:50:47.111Z,1.73
2023-03-21T05:51:54.507Z,2.42
2023-03-21T05:52:57.407Z,2.42
2023-03-21T05:54:00.592Z,2.53
2023-03-21T05:55:04.032Z,2.50
2023-03-21T05:56:07.864Z,3.30
2023-03-21T05:57:22.980Z,1.10
2023-03-21T05:58:32.252Z,1.73
2023-03-21T05:59:35.322Z,2.38
2023-03-21T06:00:38.248Z,1.27
2023-03-21T06:01:53.831Z,1.88
2023-03-21T06:02:56.985Z,2.20
2023-03-21T06:04:18.535Z,2.42
2023-03-21T06:05:21.360Z,2.00
2023-03-21T06:06:24.308Z,2.17
2023-03-21T06:07:37.283Z,1.40
2023-03-21T06:08:40.508Z,1.83
2023-03-21T06:09:43.509Z,2.53
2023-03-21T06:10:46.440Z,1.77
2023-03-21T06:11:52.930Z,1.88
2023-03-21T06:13:01.711Z,1.70
2023-03-21T06:14:08.617Z,1.13
2023-03-21T06:15:12.019Z,1.52
2023-03-21T06:16:29.199Z,2.25
2023-03-21T06:17:32.743Z,2.75
2023-03-21T06:18:39.795Z,1.38
2023-03-21T06:20:07.434Z,2.20
2023-03-21T06:21:22.082Z,2.58
2023-03-21T06:22:25.046Z,1.25
2023-03-21T06:23:27.966Z,2.05
2023-03-21T06:24:31.328Z,2.00
2023-03-21T06:25:34.116Z,1.10
2023-03-21T06:26:36.994Z,2.38
2023-03-21T06:27:39.945Z,2.55
2023-03-21T06:28:43.268Z,1.98
2023-03-21T06:29:46.616Z,2.28
2023-03-21T06:30:49.491Z,1.52
2023-03-21T06:31:56.776Z,0.95
2023-03-21T06:32:59.661Z,3.05
2023-03-21T06:34:02.506Z,2.90
2023-03-21T06:35:05.843Z,1.20
2023-03-21T06:36:09.620Z,2.95
2023-03-21T06:37:13.557Z,2.50
2023-03-21T06:38:17.285Z,1.85
2023-03-21T06:39:20.057Z,2.50
2023-03-21T06:40:23.129Z,3.30
2023-03-21T06:41:26.997Z,3.53
2023-03-21T06:42:36.934Z,2.03
2023-03-21T06:43:46.468Z,1.98
2023-03-21T06:44:49.422Z,2.95
2023-03-21T06:45:52.526Z,2.20
2023-03-21T06:46:56.793Z,1.63
2023-03-21T06:47:59.845Z,3.58
2023-03-21T06:49:27.052Z,2.30
2023-03-21T06:50:31.752Z,2.08
2023-03-21T06:51:34.644Z,2.17
2023-03-21T06:52:43.740Z,2.83
2023-03-21T06:53:48.411Z,2.35
2023-03-21T06:54:59.860Z,1.67
2023-03-21T06:56:02.646Z,1.73
2023-03-21T06:57:05.917Z,4.10
2023-03-21T06:58:11.076Z,1.70
2023-03-21T06:59:13.860Z,2.47
2023-03-21T07:00:36.613Z,2.08
2023-03-21T07:01:39.957Z,2.08
2023-03-21T07:02:43.836Z,2.05
2023-03-21T07:03:51.088Z,2.35
2023-03-21T07:04:56.466Z,1.92
2023-03-21T07:06:13.902Z,2.50
2023-03-21T07:07:16.765Z,2.90
2023-03-21T07:08:19.951Z,1.77
2023-03-21T07:09:28.211Z,1.67
2023-03-21T07:10:35.400Z,1.88
2023-03-21T07:11:42.082Z,2.80
2023-03-21T07:12:44.859Z,2.38
2023-03-21T07:13:52.819Z,1.70
2023-03-21T07:14:55.608Z,1.80
2023-03-21T07:15:58.910Z,1.77
2023-03-21T07:17:01.849Z,2.72
2023-03-21T07:18:06.340Z,1.55
2023-03-21T07:19:09.450Z,1.23
2023-03-21T07:20:13.073Z,2.70
2023-03-21T07:21:16.286Z,2.70
2023-03-21T07:22:19.828Z,1.55
2023-03-21T07:23:24.274Z,1.70
2023-03-21T07:24:27.752Z,2.85
2023-03-21T07:25:30.602Z,2.20
2023-03-21T07:26:33.728Z,1.42
2023-03-21T07:27:39.108Z,1.50
2023-03-21T07:28:43.088Z,1.90
2023-03-21T07:29:47.560Z,2.72
2023-03-21T07:30:59.017Z,1.80
2023-03-21T07:32:01.789Z,2.10
2023-03-21T07:33:05.038Z,1.95
2023-03-21T07:34:07.972Z,1.80
2023-03-21T07:35:13.872Z,1.17
2023-03-21T07:36:18.064Z,1.25
2023-03-21T07:37:21.955Z,1.90
2023-03-21T07:38:25.674Z,1.45
2023-03-21T07:39:29.805Z,1.80
2023-03-21T07:40:33.261Z,1.42
2023-03-21T07:41:36.484Z,2.55
2023-03-21T07:44:09.860Z,2.28
2023-03-21T07:45:16.615Z,2.28
2023-03-21T07:46:21.521Z,1.15
2023-03-21T07:47:24.621Z,2.35
2023-03-21T07:48:28.909Z,1.83
2023-03-21T07:49:32.057Z,1.88
2023-03-21T07:50:35.256Z,1.52
2023-03-21T07:51:38.044Z,1.83
2023-03-21T07:52:41.545Z,1.30
2023-03-21T07:53:48.775Z,1.55
2023-03-21T07:54:51.603Z,1.92
2023-03-21T07:55:58.729Z,1.88
2023-03-21T07:57:01.633Z,1.38
2023-03-21T07:58:05.579Z,1.88
2023-03-21T07:59:08.488Z,1.20
2023-03-21T08:00:12.901Z,1.92
2023-03-21T08:01:15.886Z,1.50
2023-03-21T08:02:18.951Z,1.15
2023-03-21T08:03:24.248Z,1.45
2023-03-21T08:04:26.950Z,3.03
2023-03-21T08:05:34.330Z,1.40
2023-03-21T08:06:37.096Z,1.50
2023-03-21T08:07:40.078Z,1.40
2023-03-21T08:08:42.920Z,1.30
2023-03-21T08:09:45.738Z,2.03
2023-03-21T08:10:48.541Z,1.83
2023-03-21T08:11:51.454Z,1.92
2023-03-21T08:12:54.434Z,1.10
2023-03-21T08:13:58.011Z,1.13
2023-03-21T08:15:01.326Z,2.10
2023-03-21T08:16:06.404Z,1.70
2023-03-21T08:17:09.731Z,1.77
2023-03-21T08:18:12.674Z,2.55
2023-03-21T08:19:16.216Z,1.63
2023-03-21T08:20:22.257Z,1.95
2023-03-21T08:21:25.743Z,2.00
2023-03-21T08:22:28.623Z,1.63
2023-03-21T08:23:31.630Z,1.85
2023-03-21T08:24:34.478Z,1.70
2023-03-21T08:25:38.109Z,1.73
2023-03-21T08:26:41.029Z,1.55
2023-03-21T08:27:45.775Z,2.63
2023-03-21T08:28:48.690Z,2.42
2023-03-21T08:29:51.413Z,2.45
2023-03-21T08:30:54.649Z,1.40
2023-03-21T08:31:58.347Z,1.90
2023-03-21T08:33:02.132Z,2.47
2023-03-21T08:34:04.998Z,1.95
2023-03-21T08:35:12.196Z,1.00
2023-03-21T08:36:14.954Z,1.52
2023-03-21T08:37:17.759Z,1.58
2023-03-21T08:38:21.780Z,1.52
2023-03-21T08:39:25.373Z,1.23
2023-03-21T08:40:28.237Z,1.70
2023-03-21T08:41:35.439Z,1.38
2023-03-21T08:42:39.144Z,1.52
2023-03-21T08:43:42.023Z,1.33
2023-03-21T08:44:44.951Z,1.55
2023-03-21T08:45:47.827Z,1.38
2023-03-21T08:46:50.643Z,1.30
2023-03-21T08:47:54.150Z,1.30
2023-03-21T08:48:56.935Z,1.25
2023-03-21T08:49:59.868Z,1.13
2023-03-21T08:51:02.686Z,1.02
2023-03-21T08:52:06.415Z,2.20
2023-03-21T08:53:09.200Z,1.20
2023-03-21T08:54:22.901Z,1.55
2023-03-21T08:55:26.095Z,1.65
2023-03-21T08:56:28.876Z,1.08
2023-03-21T08:57:31.805Z,1.77
2023-03-21T08:58:34.691Z,1.17
2023-03-21T08:59:38.089Z,3.03
2023-03-21T09:00:40.882Z,2.22
2023-03-21T09:01:43.733Z,2.13
2023-03-21T09:02:48.737Z,1.40
2023-03-21T09:03:51.627Z,1.65
2023-03-21T09:04:55.241Z,1.48
2023-03-21T09:05:59.466Z,2.08
2023-03-21T09:07:05.129Z,1.15
2023-03-21T09:08:07.947Z,1.50
2023-03-21T09:09:11.468Z,1.83
2023-03-21T09:10:22.200Z,1.83
2023-03-21T09:11:25.687Z,2.25
2023-03-21T09:12:28.594Z,1.38
2023-03-21T09:13:31.411Z,1.55
2023-03-21T09:14:35.026Z,1.50
2023-03-21T09:15:38.392Z,1.25
2023-03-21T09:16:41.602Z,1.42
2023-03-21T09:17:49.166Z,1.70
2023-03-21T09:19:59.728Z,1.35
2023-03-21T09:21:02.509Z,1.75
2023-03-21T09:22:05.252Z,1.60
2023-03-21T09:23:08.366Z,2.30
2023-03-21T09:24:12.892Z,1.50
2023-03-21T09:25:17.351Z,1.38
2023-03-21T09:26:20.947Z,2.05
2023-03-21T09:27:25.677Z,2.00
2023-03-21T09:28:28.593Z,1.35
2023-03-21T09:29:32.734Z,1.98
2023-03-21T09:30:37.350Z,1.45
2023-03-21T09:31:40.554Z,1.02
2023-03-21T09:32:45.847Z,1.13
2023-03-21T09:33:53.059Z,1.77
2023-03-21T09:34:57.668Z,0.90
2023-03-21T09:36:00.951Z,1.27
2023-03-21T09:37:10.288Z,1.85
2023-03-21T09:38:13.485Z,2.00
2023-03-21T09:39:17.026Z,1.80
2023-03-21T09:40:41.691Z,1.83
2023-03-21T09:41:49.663Z,1.45
2023-03-21T09:42:59.341Z,1.38
2023-03-21T09:44:08.424Z,1.27
2023-03-21T09:45:11.291Z,1.52
2023-03-21T09:46:24.337Z,1.55
2023-03-21T09:47:34.966Z,2.83
2023-03-21T09:48:56.647Z,1.70
2023-03-21T09:50:15.076Z,1.45
2023-03-21T09:51:19.680Z,1.35
2023-03-21T09:52:43.141Z,1.50
2023-03-21T09:53:49.707Z,2.33
2023-03-21T09:54:54.071Z,1.02
2023-03-21T09:55:57.260Z,1.30
2023-03-21T09:57:25.702Z,1.58
2023-03-21T09:58:40.712Z,1.73
2023-03-21T09:59:44.823Z,1.45
2023-03-21T10:00:53.835Z,1.63
2023-03-21T10:02:00.414Z,1.05
2023-03-21T10:03:07.613Z,2.08
2023-03-21T10:04:16.934Z,1.35
2023-03-21T10:05:27.276Z,1.08
2023-03-21T10:06:30.977Z,1.23
2023-03-21T10:07:41.996Z,1.23
2023-03-21T10:08:48.238Z,1.15
2023-03-21T10:09:52.735Z,1.80
2023-03-21T10:11:06.885Z,1.85
2023-03-21T10:12:21.762Z,1.55
2023-03-21T10:13:34.184Z,1.52
2023-03-21T10:14:47.446Z,2.08
2023-03-21T10:15:50.483Z,1.83
2023-03-21T10:16:58.346Z,1.15
2023-03-21T10:18:05.562Z,2.38
2023-03-21T10:19:13.246Z,1.50
2023-03-21T10:20:20.945Z,1.02
2023-03-21T10:21:56.495Z,1.30
2023-03-21T10:22:52.249Z,1.42
2023-03-21T10:23:57.642Z,1.23
2023-03-21T10:25:00.440Z,1.70
2023-03-21T10:26:06.722Z,1.30
2023-03-21T10:27:13.387Z,1.27
2023-03-21T10:28:21.052Z,1.90
2023-03-21T10:29:32.211Z,1.45
2023-03-21T10:30:42.586Z,0.90
2023-03-21T10:31:47.131Z,1.48
2023-03-21T10:32:49.951Z,1.77
2023-03-21T10:33:54.514Z,1.05
2023-03-21T10:35:00.192Z,1.13
2023-03-21T10:36:07.555Z,1.10
2023-03-21T10:38:18.760Z,1.13
2023-03-21T10:39:23.981Z,1.70
2023-03-21T10:40:26.969Z,1.17
2023-03-21T10:41:29.783Z,1.00
2023-03-21T10:42:34.119Z,1.40
2023-03-21T10:43:41.039Z,1.42
2023-03-21T10:44:48.672Z,0.88
2023-03-21T10:45:51.674Z,1.20
2023-03-21T10:47:03.983Z,1.13
2023-03-21T10:48:08.590Z,1.15
2023-03-21T10:49:16.800Z,1.42
2023-03-21T10:50:25.240Z,1.30
2023-03-21T10:51:32.299Z,1.08
2023-03-21T10:52:37.428Z,1.70
2023-03-21T10:53:47.591Z,1.38
2023-03-21T10:54:51.708Z,1.33
2023-03-21T10:55:57.685Z,1.95
2023-03-21T10:57:08.465Z,1.20
2023-03-21T10:58:25.443Z,2.53
2023-03-21T10:59:34.756Z,0.85
2023-03-21T11:00:45.366Z,1.00
2023-03-21T11:01:51.876Z,1.23
2023-03-21T11:02:55.270Z,1.35
2023-03-21T11:04:01.378Z,1.33
2023-03-21T11:05:07.744Z,1.48
2023-03-21T11:06:22.298Z,1.02
2023-03-21T11:07:31.830Z,0.95
2023-03-21T11:08:46.199Z,1.50
2023-03-21T11:09:56.463Z,1.58
2023-03-21T11:11:12.669Z,1.48
2023-03-21T11:12:29.245Z,2.33
2023-03-21T11:13:42.744Z,1.45
2023-03-21T11:14:48.463Z,1.90
2023-03-21T11:16:03.937Z,0.90
2023-03-21T11:17:18.790Z,1.90
2023-03-21T11:18:24.782Z,1.48
2023-03-21T11:19:36.412Z,1.25
2023-03-21T11:20:48.529Z,0.95
2023-03-21T11:21:51.429Z,1.10
2023-03-21T11:22:56.397Z,1.67
2023-03-21T11:23:59.160Z,1.73
2023-03-21T11:25:05.173Z,1.35
2023-03-21T11:26:12.766Z,1.42
2023-03-21T11:27:16.157Z,0.90
2023-03-21T11:28:25.070Z,1.00
2023-03-21T11:29:44.723Z,0.82
2023-03-21T11:31:09.479Z,2.17
2023-03-21T11:32:21.069Z,1.20
2023-03-21T11:33:47.100Z,1.20
2023-03-21T11:35:15.146Z,1.38
2023-03-21T11:36:21.337Z,0.75
2023-03-21T11:37:38.821Z,0.93
2023-03-21T11:38:41.887Z,1.48
2023-03-21T11:39:45.892Z,2.20
2023-03-21T11:40:58.673Z,0.75
2023-03-21T11:42:01.723Z,1.30
2023-03-21T11:43:28.867Z,2.20
2023-03-21T11:44:35.315Z,0.80
2023-03-21T11:45:39.388Z,1.13
2023-03-21T11:46:42.332Z,2.30
2023-03-21T11:47:46.481Z,1.20
2023-03-21T11:48:49.544Z,1.17
2023-03-21T11:49:58.373Z,1.00
2023-03-21T11:51:41.424Z,1.13
2023-03-21T11:54:27.275Z,1.52
2023-03-21T11:55:42.855Z,0.90
2023-03-21T11:56:55.070Z,1.58
2023-03-21T11:58:25.646Z,1.95
2023-03-21T11:59:33.938Z,0.88
2023-03-21T12:01:03.772Z,1.45
2023-03-21T12:02:37.576Z,1.20
2023-03-21T12:04:18.725Z,1.20
2023-03-21T12:05:29.031Z,0.70
2023-03-21T12:06:44.164Z,1.35
2023-03-21T12:08:01.939Z,1.10
2023-03-21T12:09:23.333Z,0.68
2023-03-21T12:10:44.490Z,0.90
2023-03-21T12:12:08.000Z,1.25
2023-03-21T12:13:37.396Z,1.10
2023-03-21T12:15:08.294Z,0.80
2023-03-21T12:16:45.206Z,1.15
2023-03-21T12:18:06.875Z,1.65
2023-03-21T12:19:53.056Z,1.55
2023-03-21T12:21:05.490Z,1.15
2023-03-21T12:22:15.617Z,1.05
2023-03-21T12:23:43.016Z,1.30
2023-03-21T12:24:50.685Z,1.95
2023-03-21T12:25:56.045Z,1.05
2023-03-21T12:27:23.091Z,1.15
2023-03-21T12:28:43.678Z,1.20
2023-03-21T12:29:55.155Z,0.90
2023-03-21T12:31:22.344Z,0.80
2023-03-21T12:32:25.041Z,0.77
2023-03-21T12:33:31.242Z,1.25
2023-03-21T12:35:01.189Z,1.08
2023-03-21T12:36:22.066Z,1.15
2023-03-21T12:37:30.732Z,1.08
2023-03-21T12:39:08.886Z,0.90
2023-03-21T12:40:29.737Z,1.30
2023-03-21T12:41:39.168Z,1.48
2023-03-21T12:42:58.427Z,1.33
2023-03-21T12:44:21.698Z,0.90
2023-03-21T12:45:34.245Z,2.10
2023-03-21T12:46:47.935Z,1.38
2023-03-21T12:48:26.707Z,1.15
2023-03-21T12:49:32.634Z,0.80
2023-03-21T12:50:37.721Z,1.65
2023-03-21T12:51:44.956Z,1.60
2023-03-21T12:52:58.104Z,1.17
2023-03-21T12:54:25.867Z,1.25
2023-03-21T12:55:33.415Z,1.58
2023-03-21T12:57:31.632Z,0.90
2023-03-21T12:58:48.362Z,0.77
2023-03-21T12:59:51.104Z,1.73
2023-03-21T13:00:57.341Z,1.02
2023-03-21T13:02:16.039Z,1.60
2023-03-21T13:03:30.578Z,1.95
2023-03-21T13:04:53.706Z,1.35
2023-03-21T13:06:06.385Z,1.48
2023-03-21T13:07:14.111Z,0.85
2023-03-21T13:08:31.558Z,0.80
2023-03-21T13:09:38.339Z,1.17
2023-03-21T13:10:43.897Z,0.80
2023-03-21T13:11:48.734Z,1.30
2023-03-21T13:12:57.965Z,1.52
2023-03-21T13:14:08.786Z,1.05
2023-03-21T13:15:53.223Z,1.80
2023-03-21T13:17:11.281Z,1.15
2023-03-21T13:18:22.606Z,0.70
2023-03-21T13:19:25.911Z,1.55
2023-03-21T13:20:49.709Z,1.00
2023-03-21T13:22:41.854Z,1.10
2023-03-21T13:24:00.168Z,1.13
2023-03-21T13:25:07.812Z,0.70
2023-03-21T13:26:12.646Z,1.58
2023-03-21T13:27:33.977Z,1.38
2023-03-21T13:28:39.059Z,1.33
2023-03-21T13:29:44.517Z,1.17
2023-03-21T13:30:49.065Z,1.25
2023-03-21T13:31:57.033Z,1.02
2023-03-21T13:33:10.952Z,1.58
2023-03-21T13:34:14.665Z,1.48
2023-03-21T13:35:54.689Z,0.80
2023-03-21T13:36:58.225Z,1.13
2023-03-21T13:38:03.918Z,1.30
2023-03-21T13:39:07.233Z,1.10
2023-03-21T13:40:25.216Z,1.30
2023-03-21T13:41:35.554Z,2.85
2023-03-21T13:42:44.977Z,0.90
2023-03-21T13:44:18.474Z,1.13
2023-03-21T13:45:31.070Z,0.98
2023-03-21T13:46:53.651Z,1.00
2023-03-21T13:48:04.501Z,1.45
2023-03-21T13:49:10.222Z,1.52
2023-03-21T13:50:22.464Z,1.33
2023-03-21T13:51:37.000Z,1.05
2023-03-21T13:52:39.893Z,1.70
2023-03-21T13:53:59.186Z,0.75
2023-03-21T13:55:04.452Z,1.08
2023-03-21T13:56:09.444Z,2.05
2023-03-21T13:57:35.324Z,0.98
2023-03-21T13:58:44.252Z,1.05
2023-03-21T13:59:48.203Z,1.05
2023-03-21T14:01:14.021Z,1.45
2023-03-21T14:02:30.535Z,1.13
2023-03-21T14:03:35.703Z,1.25
2023-03-21T14:04:42.752Z,1.70
2023-03-21T14:05:52.032Z,2.08
2023-03-21T14:07:02.396Z,0.70
2023-03-21T14:08:24.796Z,1.30
2023-03-21T14:09:39.358Z,1.10
2023-03-21T14:10:49.201Z,1.02
2023-03-21T14:11:54.679Z,0.88
2023-03-21T14:14:04.504Z,1.50
2023-03-21T14:15:21.009Z,1.98
2023-03-21T14:16:28.843Z,2.45
2023-03-21T14:17:34.275Z,0.82
2023-03-21T14:19:01.506Z,1.27
2023-03-21T14:20:16.018Z,1.23
2023-03-21T14:21:24.803Z,1.40
2023-03-21T14:22:29.669Z,1.50
2023-03-21T14:23:32.444Z,1.52
2023-03-21T14:24:35.340Z,1.70
2023-03-21T14:25:47.306Z,1.02
2023-03-21T14:26:55.566Z,1.23
2023-03-21T14:28:01.789Z,1.20
2023-03-21T14:29:12.396Z,1.67
2023-03-21T14:30:24.729Z,1.40
2023-03-21T14:31:27.934Z,1.00
2023-03-21T14:32:31.394Z,0.77
2023-03-21T14:33:40.421Z,1.35
2023-03-21T14:34:46.751Z,1.65
2023-03-21T14:35:50.256Z,1.08
2023-03-21T14:36:58.121Z,0.90
2023-03-21T14:38:05.804Z,1.08
2023-03-21T14:39:18.438Z,1.77
2023-03-21T14:40:27.356Z,1.55
2023-03-21T14:41:32.192Z,1.90
2023-03-21T14:42:38.812Z,1.10
2023-03-21T14:43:41.655Z,1.15
2023-03-21T14:44:55.359Z,1.35
2023-03-21T14:45:58.886Z,1.40
2023-03-21T14:47:03.624Z,1.02
2023-03-21T14:48:14.007Z,1.95
2023-03-21T14:49:30.300Z,1.10
2023-03-21T14:50:33.021Z,1.45
2023-03-21T14:51:35.896Z,1.35
2023-03-21T14:52:41.653Z,1.30
2023-03-21T14:53:46.359Z,1.08
2023-03-21T14:54:50.481Z,1.50
2023-03-21T14:56:05.747Z,0.90
2023-03-21T14:57:13.682Z,0.90
2023-03-21T14:58:19.341Z,1.35
2023-03-21T14:59:25.811Z,0.90
2023-03-21T15:00:31.035Z,1.48
2023-03-21T15:01:35.266Z,1.58
2023-03-21T15:02:41.819Z,1.52
2023-03-21T15:03:46.560Z,1.80
2023-03-21T15:04:56.659Z,1.63
2023-03-21T15:06:00.557Z,0.93
2023-03-21T15:07:05.485Z,2.03
2023-03-21T15:08:17.609Z,1.60
2023-03-21T15:09:22.747Z,1.30
2023-03-21T15:10:28.452Z,1.30
2023-03-21T15:11:34.259Z,1.88
2023-03-21T15:12:36.936Z,1.83
2023-03-21T15:13:51.490Z,1.13
2023-03-21T15:14:54.847Z,2.08
2023-03-21T15:15:58.105Z,2.58
2023-03-21T15:17:04.340Z,1.00
2023-03-21T15:18:08.729Z,1.58
2023-03-21T15:19:17.825Z,1.83
2023-03-21T15:20:28.891Z,1.35
2023-03-21T15:21:41.057Z,1.48
2023-03-21T15:22:52.292Z,1.50
2023-03-21T15:23:59.535Z,1.60
2023-03-21T15:25:07.063Z,1.42
2023-03-21T15:26:15.985Z,2.33
2023-03-21T15:27:24.066Z,2.63
2023-03-21T15:28:27.114Z,1.17
2023-03-21T15:29:30.664Z,1.02
2023-03-21T15:30:34.476Z,1.65
2023-03-21T15:31:40.058Z,2.65
2023-03-21T15:32:42.859Z,1.20
2023-03-21T15:33:50.031Z,0.82
2023-03-21T15:34:56.684Z,1.30
2023-03-21T15:36:01.104Z,2.97
2023-03-21T15:37:14.676Z,1.13